Flight Track Log - Related Links

Times and Time Zones

All times are in EST time to prevent confusion due to time zone crossing. See the UCA4772 flight status page for this flight to view local times or setup timezone preferences in your user account.

Time Position Orientation Groundspeed Altitude Reporting Facility
EST Latitude Longitude Course Direction KTS MPH feet Rate Location/Type
Mon 07:53:41 AM 41.3992 -81.8767 249° West 112 129 1,800  Level Cleveland Center
Mon 07:54:17 AM 41.3883 -81.9028 241° Southwest 143 165 2,600 1,364 Climbing Cleveland Center
Mon 07:55:09 AM 41.3733 -81.9439 244° Southwest 143 165 3,800 1,475 Climbing Cleveland Center
Mon 07:55:18 AM 41.3686 -81.9581 246° West 172 198 4,100 1,645 Climbing Cleveland Center
Mon 07:56:11 AM 41.3564 -82.0011 249° West 157 181 5,500 1,672 Climbing Cleveland Center
Mon 07:56:19 AM 41.3528 -82.0139 249° West 172 198 5,800 1,548 Climbing Cleveland Center
Mon 07:57:13 AM 41.3375 -82.0586 246° West 164 189 7,100 1,800 Climbing Cleveland Center
Mon 07:57:19 AM 41.3303 -82.0744 239° Southwest 171 197 7,600 1,770 Climbing Cleveland Center
Mon 07:58:00 AM 41.3049 -82.1408 249° West  Level FlightAware Approximate
Mon 07:58:14 AM 41.3183 -82.1147 248° West 167 192 8,900  Level Cleveland Center
Mon 07:58:20 AM 41.3125 -82.1300 243° Southwest 158 182 8,900 -484 Level Cleveland Center
Mon 07:59:00 AM 41.2862 -82.2049 249° West  Level FlightAware Approximate
Mon 07:59:16 AM 41.2953 -82.1842 247° West 170 196 8,400  Level Cleveland Center
Mon 08:00:18 AM 41.2678 -82.2581 244° Southwest 211 243 8,000 -244 Descending Cleveland Center
Mon 08:01:19 AM 41.2417 -82.3319 245° Southwest 216 249 7,900 -49 Descending Cleveland Center
Mon 08:02:21 AM 41.2178 -82.4047 246° West 216 249 7,900 48 Level Cleveland Center
Mon 08:03:23 AM 41.1947 -82.4750 246° West 210 242 8,000 49 Climbing Cleveland Center
Mon 08:04:24 AM 41.1706 -82.5458 246° West 210 242 8,000  Level Cleveland Center
Mon 08:05:26 AM 41.1467 -82.6164 246° West 209 241 8,000  Level Cleveland Center
Mon 08:06:28 AM 41.1225 -82.6872 246° West 209 241 8,000  Level Cleveland Center
Mon 08:07:29 AM 41.0956 -82.7561 243° Southwest 209 241 8,000  Level Cleveland Center
Mon 08:08:31 AM 41.0486 -82.8275 229° Southwest 215 247 8,000  Level Cleveland Center
Mon 08:09:33 AM 41.0103 -82.8892 231° Southwest 215 247 8,000  Level Cleveland Center
Mon 08:10:35 AM 40.9725 -82.9528 232° Southwest 216 249 8,000  Level Cleveland Center
Mon 08:11:36 AM 40.9336 -83.0142 230° Southwest 216 249 8,000  Level Cleveland Center
Mon 08:12:38 AM 40.8961 -83.0744 231° Southwest 214 246 8,000  Level Cleveland Center
Mon 08:13:40 AM 40.8592 -83.1347 231° Southwest 212 244 8,000  Level Cleveland Center
Mon 08:14:42 AM 40.8186 -83.2000 231° Southwest 211 243 8,000  Level Cleveland Center
Mon 08:15:43 AM 40.7811 -83.2606 231° Southwest 211 243 8,000 -49 Level Cleveland Center
Mon 08:16:45 AM 40.7436 -83.3214 231° Southwest 213 245 7,900  Descending Cleveland Center
Mon 08:17:45 AM 40.7047 -83.3828 230° Southwest 217 250 8,000 50 Climbing Indianapolis Center
Mon 08:18:46 AM 40.6664 -83.4444 231° Southwest 218 251 8,000  Level Indianapolis Center
Mon 08:19:48 AM 40.6283 -83.5056 231° Southwest 217 250 8,000  Level Indianapolis Center
Mon 08:20:49 AM 40.6131 -83.5783 255° West 209 241 8,000  Level Indianapolis Center
Mon 08:21:31 AM 40.5972 -83.6400 251° West 204 235 8,000  Level Indianapolis Center
Mon 08:21:50 AM 40.5956 -83.6483 255° West 204 235 8,000  Level Indianapolis Center
Mon 08:22:32 AM 40.5817 -83.7117 254° West 205 236 8,000  Level Indianapolis Center
Mon 08:22:52 AM 40.5761 -83.7350 253° West 205 236 8,000  Level Indianapolis Center
Mon 08:23:33 AM 40.5639 -83.7831 252° West 207 238 8,000 -98 Level Indianapolis Center
Mon 08:23:53 AM 40.5597 -83.8072 257° West 207 238 7,900 -100 Descending Indianapolis Center
Mon 08:24:33 AM 40.5461 -83.8544 249° West 208 239 7,900 97 Level Indianapolis Center
Mon 08:24:55 AM 40.5425 -83.8803 260° West 209 241 8,000 98 Climbing Indianapolis Center
Mon 08:25:34 AM 40.5275 -83.9339 250° West 211 243 8,000 -98 Level Indianapolis Center
Mon 08:25:56 AM 40.5256 -83.9536 263° West 210 242 7,900 -98 Descending Indianapolis Center
Mon 08:26:35 AM 40.5114 -84.0083 251° West 210 242 7,900  Level Indianapolis Center
Mon 08:26:58 AM 40.5086 -84.0264 259° West 209 241 7,900  Level Indianapolis Center
Mon 08:27:35 AM 40.4953 -84.0825 253° West 208 239 7,900  Level Indianapolis Center
Mon 08:27:59 AM 40.4917 -84.0986 254° West 209 241 7,900  Level Indianapolis Center
Mon 08:28:42 AM 40.4767 -84.1592 252° West 209 241 7,900  Level Indianapolis Center
Mon 08:29:00 AM 40.4733 -84.1711 250° West 209 241 7,900  Level Indianapolis Center
Mon 08:29:49 AM 40.4572 -84.2439 254° West 210 242 7,900 97 Level Indianapolis Center
Mon 08:30:02 AM 40.4567 -84.2447 229° Southwest 210 242 8,000  Climbing Indianapolis Center
Mon 08:30:43 AM 40.4394 -84.3122 251° West 214 246 7,900 -98 Descending Indianapolis Center
Mon 08:31:03 AM 40.4358 -84.3342 258° West 213 245 7,900  Level Indianapolis Center
Mon 08:31:44 AM 40.4233 -84.3864 253° West 209 241 7,900  Level Indianapolis Center
Mon 08:32:05 AM 40.4194 -84.4064 256° West 210 242 7,900  Level Indianapolis Center
Mon 08:32:45 AM 40.4050 -84.4575 250° West 209 241 7,900  Level Indianapolis Center
Mon 08:33:06 AM 40.4011 -84.4794 257° West 211 243 7,900  Level Indianapolis Center
Mon 08:33:45 AM 40.3886 -84.5314 252° West 214 246 7,900  Level Indianapolis Center
Mon 08:34:07 AM 40.3839 -84.5533 254° West 212 244 7,900  Level Indianapolis Center
Mon 08:34:46 AM 40.3703 -84.6050 251° West 213 245 7,900  Level Indianapolis Center
Mon 08:35:09 AM 40.3661 -84.6267 256° West 213 245 7,900  Level Indianapolis Center
Mon 08:35:47 AM 40.3536 -84.6792 253° West 211 243 7,900  Level Indianapolis Center
Mon 08:36:10 AM 40.3492 -84.7000 254° West 211 243 7,900  Level Indianapolis Center
Mon 08:36:53 AM 40.3319 -84.7631 250° West 214 246 7,900  Level Indianapolis Center
Mon 08:37:12 AM 40.3311 -84.7733 264° West 212 244 7,900  Level Indianapolis Center
Mon 08:37:48 AM 40.3186 -84.8267 253° West 215 247 7,900  Level Indianapolis Center
Mon 08:38:13 AM 40.3133 -84.8486 253° West 215 247 7,900  Level Indianapolis Center
Mon 08:38:54 AM 40.2961 -84.9131 251° West 216 249 7,900  Level Indianapolis Center
Mon 08:39:14 AM 40.2933 -84.9272 256° West 216 249 7,900  Level Indianapolis Center
Mon 08:39:49 AM 40.2800 -84.9817 252° West 215 247 7,900  Level Indianapolis Center
Mon 08:40:16 AM 40.2758 -85.0014 255° West 215 247 7,900  Level Indianapolis Center
Mon 08:41:17 AM 40.2542 -85.0894 252° West 213 245 7,900  Level Indianapolis Center
Mon 08:42:18 AM 40.2361 -85.1636 252° West 214 246 7,900 -49 Level Indianapolis Center
Mon 08:43:20 AM 40.2172 -85.2383 252° West 217 250 7,800  Descending Indianapolis Center
Mon 08:44:21 AM 40.1994 -85.3131 253° West 217 250 7,900 49 Climbing Indianapolis Center
Mon 08:45:22 AM 40.1803 -85.3869 251° West 216 249 7,900  Level Indianapolis Center
Mon 08:46:24 AM 40.1617 -85.4617 252° West 217 250 7,900  Level Indianapolis Center
Mon 08:47:25 AM 40.1442 -85.5372 253° West 218 251 7,900 -439 Level Indianapolis Center
Mon 08:48:27 AM 40.0894 -85.5881 215° Southwest 243 280 7,000 -1,024 Descending Indianapolis Center
Mon 08:49:28 AM 40.0233 -85.6458 214° Southwest 240 276 5,800 -984 Descending Indianapolis Center
Mon 08:50:29 AM 39.9669 -85.6961 214° Southwest 242 278 5,000 -390 Descending Indianapolis Center
Mon 08:51:31 AM 39.9106 -85.7453 214° Southwest 244 281 5,000  Level Indianapolis Center
Mon 08:52:32 AM 39.8547 -85.7947 214° Southwest 244 281 5,000  Level Indianapolis Center
Mon 08:53:34 AM 39.7983 -85.8428 213° Southwest 243 280 5,000  Level Indianapolis Center
Mon 08:54:35 AM 39.7422 -85.8922 214° Southwest 243 280 5,000  Level Indianapolis Center
Mon 08:55:36 AM 39.6856 -85.9406 213° Southwest 243 280 5,000 -439 Level Indianapolis Center
Mon 08:56:38 AM 39.6317 -85.9942 217° Southwest 243 280 4,100 -927 Descending Indianapolis Center
Mon 08:57:39 AM 39.6050 -86.0650 244° Southwest 227 261 3,100 -537 Descending Indianapolis Center
Mon 08:58:41 AM 39.6242 -86.1300 291° West 202 232 3,000 -244 Descending Indianapolis Center
Mon 08:59:42 AM 39.6631 -86.1956 308° West 194 223 2,600 -639 Descending Indianapolis Center
Mon 09:00:43 AM 39.6914 -86.2328 315° West 167 192 1,700 -732 Descending Indianapolis Center
Mon 09:01:45 AM 39.7078 -86.2544 315° West 117 135 1,100 -488 Descending Indianapolis Center
Mon 09:02:46 AM 39.7247 -86.2764 315° West 95 109 700 -146 Descending Indianapolis Center
Mon 09:03:48 AM 39.7258 -86.2825 283° West 57 66 800 97 Climbing Indianapolis Center

Login

Don't have an account? Register now (free) for customized features, flight alerts, and more!